sensor_id;sensor_type;location;lat;lon;timestamp;pressure;altitude;pressure_sealevel;temperature;humidity
20696;BME280;10507;52.754;13.040;2023-03-03T00:00:30;101795.66;;;-0.68;100.00
20696;BME280;10507;52.754;13.040;2023-03-03T00:03:00;101785.16;;;-0.68;100.00
20696;BME280;10507;52.754;13.040;2023-03-03T00:05:33;101783.34;;;-0.72;100.00
20696;BME280;10507;52.754;13.040;2023-03-03T00:08:01;101820.16;;;-0.66;100.00
20696;BME280;10507;52.754;13.040;2023-03-03T00:10:29;101804.44;;;-0.66;100.00
20696;BME280;10507;52.754;13.040;2023-03-03T00:12:57;101817.56;;;-0.63;100.00
20696;BME280;10507;52.754;13.040;2023-03-03T00:15:27;101779.06;;;-0.69;100.00
20696;BME280;10507;52.754;13.040;2023-03-03T00:17:55;101809.72;;;-0.63;100.00
20696;BME280;10507;52.754;13.040;2023-03-03T00:20:33;101819.41;;;-0.60;100.00
20696;BME280;10507;52.754;13.040;2023-03-03T00:23:18;101855.34;;;-0.52;100.00
20696;BME280;10507;52.754;13.040;2023-03-03T00:25:48;101814.16;;;-0.59;100.00
20696;BME280;10507;52.754;13.040;2023-03-03T00:28:23;101822.84;;;-0.61;100.00
20696;BME280;10507;52.754;13.040;2023-03-03T00:30:53;101813.16;;;-0.69;100.00
20696;BME280;10507;52.754;13.040;2023-03-03T00:33:26;101847.28;;;-0.67;100.00
20696;BME280;10507;52.754;13.040;2023-03-03T00:35:58;101835.00;;;-0.68;100.00
20696;BME280;10507;52.754;13.040;2023-03-03T00:38:27;101803.34;;;-0.80;100.00
20696;BME280;10507;52.754;13.040;2023-03-03T00:40:55;101809.41;;;-0.85;100.00
20696;BME280;10507;52.754;13.040;2023-03-03T00:43:25;101819.75;;;-0.92;100.00
20696;BME280;10507;52.754;13.040;2023-03-03T00:45:56;101846.88;;;-0.90;100.00
20696;BME280;10507;52.754;13.040;2023-03-03T00:48:27;101859.06;;;-0.92;100.00
20696;BME280;10507;52.754;13.040;2023-03-03T00:50:58;101872.25;;;-0.88;100.00
20696;BME280;10507;52.754;13.040;2023-03-03T00:53:27;101871.38;;;-0.88;100.00
20696;BME280;10507;52.754;13.040;2023-03-03T00:55:56;101916.13;;;-0.77;100.00
20696;BME280;10507;52.754;13.040;2023-03-03T00:58:25;101913.50;;;-0.77;100.00
20696;BME280;10507;52.754;13.040;2023-03-03T01:00:54;101953.91;;;-0.66;100.00
20696;BME280;10507;52.754;13.040;2023-03-03T01:03:25;101902.16;;;-0.78;100.00
20696;BME280;10507;52.754;13.040;2023-03-03T01:05:53;101913.56;;;-0.74;100.00
20696;BME280;10507;52.754;13.040;2023-03-03T01:08:24;101888.94;;;-0.84;100.00
20696;BME280;10507;52.754;13.040;2023-03-03T01:10:54;101884.50;;;-0.90;100.00
20696;BME280;10507;52.754;13.040;2023-03-03T01:13:25;101918.56;;;-0.88;100.00
20696;BME280;10507;52.754;13.040;2023-03-03T01:15:54;101938.66;;;-0.89;100.00
20696;BME280;10507;52.754;13.040;2023-03-03T01:18:22;101903.59;;;-0.95;100.00
20696;BME280;10507;52.754;13.040;2023-03-03T01:20:50;101917.47;;;-1.02;100.00
20696;BME280;10507;52.754;13.040;2023-03-03T01:23:18;101918.22;;;-1.08;100.00
20696;BME280;10507;52.754;13.040;2023-03-03T01:25:48;101933.03;;;-1.10;100.00
20696;BME280;10507;52.754;13.040;2023-03-03T01:28:16;101933.00;;;-1.12;100.00
20696;BME280;10507;52.754;13.040;2023-03-03T01:30:44;101971.50;;;-1.09;100.00
20696;BME280;10507;52.754;13.040;2023-03-03T01:33:12;102024.25;;;-0.91;100.00
20696;BME280;10507;52.754;13.040;2023-03-03T01:35:43;102015.47;;;-0.93;100.00
20696;BME280;10507;52.754;13.040;2023-03-03T01:38:11;102030.41;;;-0.89;100.00
20696;BME280;10507;52.754;13.040;2023-03-03T01:40:40;102063.03;;;-0.74;100.00
20696;BME280;10507;52.754;13.040;2023-03-03T01:43:13;102049.00;;;-0.76;100.00
20696;BME280;10507;52.754;13.040;2023-03-03T01:48:45;102055.97;;;-0.78;100.00
20696;BME280;10507;52.754;13.040;2023-03-03T01:51:18;102067.38;;;-0.75;100.00
20696;BME280;10507;52.754;13.040;2023-03-03T01:53:50;102050.66;;;-0.81;100.00
20696;BME280;10507;52.754;13.040;2023-03-03T01:56:18;102091.91;;;-0.73;100.00
20696;BME280;10507;52.754;13.040;2023-03-03T01:58:50;102081.41;;;-0.73;100.00
20696;BME280;10507;52.754;13.040;2023-03-03T02:01:22;102082.28;;;-0.72;100.00
20696;BME280;10507;52.754;13.040;2023-03-03T02:03:51;102119.19;;;-0.63;100.00
20696;BME280;10507;52.754;13.040;2023-03-03T02:06:24;102117.53;;;-0.59;100.00
20696;BME280;10507;52.754;13.040;2023-03-03T02:08:58;102110.47;;;-0.62;100.00
20696;BME280;10507;52.754;13.040;2023-03-03T02:11:29;102091.16;;;-0.67;100.00
20696;BME280;10507;52.754;13.040;2023-03-03T02:13:59;102145.81;;;-0.45;100.00
20696;BME280;10507;52.754;13.040;2023-03-03T02:16:28;102113.31;;;-0.51;100.00
20696;BME280;10507;52.754;13.040;2023-03-03T02:18:57;102082.63;;;-0.55;100.00
20696;BME280;10507;52.754;13.040;2023-03-03T02:21:25;102096.75;;;-0.49;100.00
20696;BME280;10507;52.754;13.040;2023-03-03T02:23:58;102089.72;;;-0.50;100.00
20696;BME280;10507;52.754;13.040;2023-03-03T02:26:30;102086.25;;;-0.49;100.00
20696;BME280;10507;52.754;13.040;2023-03-03T02:28:59;102053.75;;;-0.57;100.00
20696;BME280;10507;52.754;13.040;2023-03-03T02:31:29;102058.97;;;-0.57;100.00
20696;BME280;10507;52.754;13.040;2023-03-03T02:33:57;102069.50;;;-0.55;100.00
20696;BME280;10507;52.754;13.040;2023-03-03T02:36:27;102097.63;;;-0.48;100.00
20696;BME280;10507;52.754;13.040;2023-03-03T02:39:02;102133.69;;;-0.36;100.00
20696;BME280;10507;52.754;13.040;2023-03-03T02:41:38;102013.31;;;-0.68;100.00
20696;BME280;10507;52.754;13.040;2023-03-03T02:44:09;102074.69;;;-0.60;100.00
20696;BME280;10507;52.754;13.040;2023-03-03T02:46:39;102034.22;;;-0.73;100.00
20696;BME280;10507;52.754;13.040;2023-03-03T02:49:09;102079.00;;;-0.62;100.00
20696;BME280;10507;52.754;13.040;2023-03-03T02:51:38;102052.66;;;-0.68;100.00
20696;BME280;10507;52.754;13.040;2023-03-03T02:54:08;102099.03;;;-0.66;100.00
20696;BME280;10507;52.754;13.040;2023-03-03T02:56:37;102020.03;;;-0.84;100.00
20696;BME280;10507;52.754;13.040;2023-03-03T02:59:06;102034.63;;;-0.97;100.00
20696;BME280;10507;52.754;13.040;2023-03-03T03:01:34;102080.22;;;-0.89;100.00
20696;BME280;10507;52.754;13.040;2023-03-03T03:04:05;102097.63;;;-0.94;100.00
20696;BME280;10507;52.754;13.040;2023-03-03T03:06:35;102095.69;;;-1.01;100.00
20696;BME280;10507;52.754;13.040;2023-03-03T03:09:04;102150.13;;;-0.89;100.00
20696;BME280;10507;52.754;13.040;2023-03-03T03:11:32;102107.03;;;-1.02;100.00
20696;BME280;10507;52.754;13.040;2023-03-03T03:14:03;102142.78;;;-1.06;100.00
20696;BME280;10507;52.754;13.040;2023-03-03T03:16:31;102144.53;;;-1.06;100.00
20696;BME280;10507;52.754;13.040;2023-03-03T03:19:00;102162.03;;;-1.05;100.00
20696;BME280;10507;52.754;13.040;2023-03-03T03:21:29;102183.00;;;-1.05;100.00
20696;BME280;10507;52.754;13.040;2023-03-03T03:23:58;102169.84;;;-1.07;100.00
20696;BME280;10507;52.754;13.040;2023-03-03T03:26:29;102215.53;;;-0.95;100.00
20696;BME280;10507;52.754;13.040;2023-03-03T03:28:58;102181.16;;;-1.09;100.00
20696;BME280;10507;52.754;13.040;2023-03-03T03:31:28;102178.59;;;-1.06;100.00
20696;BME280;10507;52.754;13.040;2023-03-03T03:33:59;102216.50;;;-0.92;100.00
20696;BME280;10507;52.754;13.040;2023-03-03T03:36:27;102214.81;;;-0.88;100.00
20696;BME280;10507;52.754;13.040;2023-03-03T03:38:55;102206.94;;;-0.90;100.00
20696;BME280;10507;52.754;13.040;2023-03-03T03:41:23;102223.69;;;-0.81;100.00
20696;BME280;10507;52.754;13.040;2023-03-03T03:43:51;102209.75;;;-0.80;100.00
20696;BME280;10507;52.754;13.040;2023-03-03T03:46:19;102189.47;;;-0.88;100.00
20696;BME280;10507;52.754;13.040;2023-03-03T03:48:48;102156.16;;;-0.93;100.00
20696;BME280;10507;52.754;13.040;2023-03-03T03:51:16;102220.25;;;-0.80;100.00
20696;BME280;10507;52.754;13.040;2023-03-03T03:53:44;102195.88;;;-0.75;100.00
20696;BME280;10507;52.754;13.040;2023-03-03T03:56:12;102127.22;;;-0.98;100.00
20696;BME280;10507;52.754;13.040;2023-03-03T03:58:40;102164.19;;;-0.86;100.00
20696;BME280;10507;52.754;13.040;2023-03-03T04:01:09;102117.63;;;-0.97;100.00
20696;BME280;10507;52.754;13.040;2023-03-03T04:03:37;102138.66;;;-0.94;100.00
20696;BME280;10507;52.754;13.040;2023-03-03T04:06:06;102134.31;;;-0.94;100.00
20696;BME280;10507;52.754;13.040;2023-03-03T04:08:34;102124.56;;;-0.99;100.00
20696;BME280;10507;52.754;13.040;2023-03-03T04:11:02;102129.13;;;-0.91;100.00
20696;BME280;10507;52.754;13.040;2023-03-03T04:13:30;102137.94;;;-0.87;100.00
20696;BME280;10507;52.754;13.040;2023-03-03T04:16:01;102115.13;;;-0.91;100.00
20696;BME280;10507;52.754;13.040;2023-03-03T04:18:29;102132.72;;;-0.86;100.00
20696;BME280;10507;52.754;13.040;2023-03-03T04:20:57;102116.91;;;-0.90;100.00
20696;BME280;10507;52.754;13.040;2023-03-03T04:23:26;102123.16;;;-0.84;100.00
20696;BME280;10507;52.754;13.040;2023-03-03T04:25:55;102104.75;;;-0.87;100.00
20696;BME280;10507;52.754;13.040;2023-03-03T04:28:22;102110.91;;;-0.85;100.00
20696;BME280;10507;52.754;13.040;2023-03-03T04:30:52;102093.28;;;-0.92;100.00
20696;BME280;10507;52.754;13.040;2023-03-03T04:33:20;102081.78;;;-0.98;100.00
20696;BME280;10507;52.754;13.040;2023-03-03T04:35:48;102093.22;;;-0.95;100.00
20696;BME280;10507;52.754;13.040;2023-03-03T04:38:16;102059.81;;;-1.05;100.00
20696;BME280;10507;52.754;13.040;2023-03-03T04:40:46;102079.97;;;-1.01;100.00
20696;BME280;10507;52.754;13.040;2023-03-03T04:43:14;102098.31;;;-1.01;100.00
20696;BME280;10507;52.754;13.040;2023-03-03T04:45:43;102137.88;;;-0.90;100.00
20696;BME280;10507;52.754;13.040;2023-03-03T04:48:11;102094.91;;;-0.97;100.00
20696;BME280;10507;52.754;13.040;2023-03-03T04:50:40;102100.25;;;-0.92;100.00
20696;BME280;10507;52.754;13.040;2023-03-03T04:53:08;102069.56;;;-0.98;100.00
20696;BME280;10507;52.754;13.040;2023-03-03T04:55:37;102063.25;;;-1.08;100.00
20696;BME280;10507;52.754;13.040;2023-03-03T04:58:06;102086.81;;;-1.09;100.00
20696;BME280;10507;52.754;13.040;2023-03-03T05:00:35;102117.63;;;-0.97;100.00
20696;BME280;10507;52.754;13.040;2023-03-03T05:03:04;102129.91;;;-0.96;100.00
20696;BME280;10507;52.754;13.040;2023-03-03T05:05:32;102060.59;;;-1.09;100.00
20696;BME280;10507;52.754;13.040;2023-03-03T05:08:00;102096.47;;;-1.07;100.00
20696;BME280;10507;52.754;13.040;2023-03-03T05:10:28;102113.06;;;-1.06;100.00
20696;BME280;10507;52.754;13.040;2023-03-03T05:12:56;102145.59;;;-0.98;100.00
20696;BME280;10507;52.754;13.040;2023-03-03T05:15:25;102157.00;;;-0.96;100.00
20696;BME280;10507;52.754;13.040;2023-03-03T05:17:53;102120.16;;;-1.02;100.00
20696;BME280;10507;52.754;13.040;2023-03-03T05:20:22;102151.78;;;-0.93;100.00
20696;BME280;10507;52.754;13.040;2023-03-03T05:22:51;102131.59;;;-0.98;100.00
20696;BME280;10507;52.754;13.040;2023-03-03T05:25:20;102139.56;;;-0.94;100.00
20696;BME280;10507;52.754;13.040;2023-03-03T05:27:48;102114.84;;;-1.05;100.00
20696;BME280;10507;52.754;13.040;2023-03-03T05:30:16;102126.19;;;-1.06;100.00
20696;BME280;10507;52.754;13.040;2023-03-03T05:32:46;102170.06;;;-0.97;100.00
20696;BME280;10507;52.754;13.040;2023-03-03T05:35:15;102167.47;;;-0.96;100.00
20696;BME280;10507;52.754;13.040;2023-03-03T05:37:43;102190.28;;;-0.92;100.00
20696;BME280;10507;52.754;13.040;2023-03-03T05:40:13;102159.59;;;-0.96;100.00
20696;BME280;10507;52.754;13.040;2023-03-03T05:42:41;102124.44;;;-1.06;100.00
20696;BME280;10507;52.754;13.040;2023-03-03T05:45:10;102129.66;;;-1.06;100.00
20696;BME280;10507;52.754;13.040;2023-03-03T05:47:38;102112.06;;;-1.13;100.00
20696;BME280;10507;52.754;13.040;2023-03-03T05:50:08;102110.22;;;-1.17;100.00
20696;BME280;10507;52.754;13.040;2023-03-03T05:52:37;102178.63;;;-1.05;100.00
20696;BME280;10507;52.754;13.040;2023-03-03T05:55:06;102158.50;;;-1.07;100.00
20696;BME280;10507;52.754;13.040;2023-03-03T05:57:34;102187.56;;;-0.96;100.00
20696;BME280;10507;52.754;13.040;2023-03-03T06:00:03;102199.06;;;-0.90;100.00
20696;BME280;10507;52.754;13.040;2023-03-03T06:02:54;102204.44;;;-0.84;100.00
20696;BME280;10507;52.754;13.040;2023-03-03T06:05:24;102242.38;;;-0.68;100.00
20696;BME280;10507;52.754;13.040;2023-03-03T06:07:52;102206.41;;;-0.73;100.00
20696;BME280;10507;52.754;13.040;2023-03-03T06:10:19;102191.59;;;-0.71;100.00
20696;BME280;10507;52.754;13.040;2023-03-03T06:12:48;102186.44;;;-0.67;100.00
20696;BME280;10507;52.754;13.040;2023-03-03T06:15:16;102102.19;;;-0.84;100.00
20696;BME280;10507;52.754;13.040;2023-03-03T06:17:44;102115.38;;;-0.80;100.00
20696;BME280;10507;52.754;13.040;2023-03-03T06:20:12;102111.94;;;-0.76;100.00
20696;BME280;10507;52.754;13.040;2023-03-03T06:22:42;102110.31;;;-0.71;100.00
20696;BME280;10507;52.754;13.040;2023-03-03T06:25:10;102136.72;;;-0.62;100.00
20696;BME280;10507;52.754;13.040;2023-03-03T06:27:40;102142.91;;;-0.57;100.00
20696;BME280;10507;52.754;13.040;2023-03-03T06:30:12;102110.53;;;-0.59;100.00
20696;BME280;10507;52.754;13.040;2023-03-03T06:32:40;102070.28;;;-0.61;100.00
20696;BME280;10507;52.754;13.040;2023-03-03T06:35:09;102035.22;;;-0.66;100.00
20696;BME280;10507;52.754;13.040;2023-03-03T06:37:37;102040.50;;;-0.63;100.00
20696;BME280;10507;52.754;13.040;2023-03-03T06:40:08;102036.97;;;-0.65;100.00
20696;BME280;10507;52.754;13.040;2023-03-03T06:42:36;102012.53;;;-0.64;100.00
20696;BME280;10507;52.754;13.040;2023-03-03T06:45:05;102047.69;;;-0.53;100.00
20696;BME280;10507;52.754;13.040;2023-03-03T06:47:32;102034.63;;;-0.51;100.00
20696;BME280;10507;52.754;13.040;2023-03-03T06:50:01;102027.66;;;-0.48;100.00
20696;BME280;10507;52.754;13.040;2023-03-03T06:52:29;102004.03;;;-0.51;100.00
20696;BME280;10507;52.754;13.040;2023-03-03T06:54:58;102030.44;;;-0.38;100.00
20696;BME280;10507;52.754;13.040;2023-03-03T06:57:29;102040.16;;;-0.36;100.00
20696;BME280;10507;52.754;13.040;2023-03-03T07:00:09;102018.25;;;-0.38;100.00
20696;BME280;10507;52.754;13.040;2023-03-03T07:02:42;102048.16;;;-0.27;100.00
20696;BME280;10507;52.754;13.040;2023-03-03T07:05:13;101999.03;;;-0.35;100.00
20696;BME280;10507;52.754;13.040;2023-03-03T07:07:42;101985.84;;;-0.38;100.00
20696;BME280;10507;52.754;13.040;2023-03-03T07:10:21;101989.41;;;-0.35;100.00
20696;BME280;10507;52.754;13.040;2023-03-03T07:12:51;101980.69;;;-0.34;100.00
20696;BME280;10507;52.754;13.040;2023-03-03T07:15:22;101982.56;;;-0.25;100.00
20696;BME280;10507;52.754;13.040;2023-03-03T07:17:54;102023.00;;;-0.14;100.00
20696;BME280;10507;52.754;13.040;2023-03-03T07:20:29;101955.47;;;-0.23;100.00
20696;BME280;10507;52.754;13.040;2023-03-03T07:22:59;101967.72;;;-0.23;100.00
20696;BME280;10507;52.754;13.040;2023-03-03T07:25:31;101995.84;;;-0.16;100.00
20696;BME280;10507;52.754;13.040;2023-03-03T07:28:13;101972.13;;;-0.22;100.00
20696;BME280;10507;52.754;13.040;2023-03-03T07:30:46;101975.69;;;-0.18;100.00
20696;BME280;10507;52.754;13.040;2023-03-03T07:33:22;101994.19;;;-0.11;100.00
20696;BME280;10507;52.754;13.040;2023-03-03T07:35:51;101959.16;;;-0.13;100.00
20696;BME280;10507;52.754;13.040;2023-03-03T07:38:24;101968.88;;;-0.06;100.00
20696;BME280;10507;52.754;13.040;2023-03-03T07:40:58;101989.16;;;0.05;100.00
20696;BME280;10507;52.754;13.040;2023-03-03T07:43:34;101951.56;;;0.07;100.00
20696;BME280;10507;52.754;13.040;2023-03-03T07:46:28;101982.34;;;0.16;100.00
20696;BME280;10507;52.754;13.040;2023-03-03T07:48:57;101982.41;;;0.22;100.00
20696;BME280;10507;52.754;13.040;2023-03-03T07:51:28;101970.16;;;0.24;100.00
20696;BME280;10507;52.754;13.040;2023-03-03T07:54:15;101922.06;;;0.25;100.00
20696;BME280;10507;52.754;13.040;2023-03-03T07:56:45;101960.69;;;0.35;100.00
20696;BME280;10507;52.754;13.040;2023-03-03T07:59:20;101958.22;;;0.46;100.00
20696;BME280;10507;52.754;13.040;2023-03-03T08:01:51;101958.38;;;0.60;100.00
20696;BME280;10507;52.754;13.040;2023-03-03T08:04:23;101925.16;;;0.65;100.00
20696;BME280;10507;52.754;13.040;2023-03-03T08:06:53;101948.03;;;0.75;100.00
20696;BME280;10507;52.754;13.040;2023-03-03T08:09:43;101903.34;;;0.72;100.00
20696;BME280;10507;52.754;13.040;2023-03-03T08:12:20;101869.09;;;0.63;100.00
20696;BME280;10507;52.754;13.040;2023-03-03T08:14:53;101885.81;;;0.73;100.00
20696;BME280;10507;52.754;13.040;2023-03-03T08:17:23;101906.03;;;0.80;100.00
20696;BME280;10507;52.754;13.040;2023-03-03T08:19:52;101874.53;;;0.85;100.00
20696;BME280;10507;52.754;13.040;2023-03-03T08:22:28;101888.66;;;0.96;100.00
20696;BME280;10507;52.754;13.040;2023-03-03T08:24:58;101882.63;;;1.04;100.00
20696;BME280;10507;52.754;13.040;2023-03-03T08:27:26;101853.69;;;1.08;100.00
20696;BME280;10507;52.754;13.040;2023-03-03T08:29:55;101848.44;;;1.08;100.00
20696;BME280;10507;52.754;13.040;2023-03-03T08:32:23;101801.94;;;1.02;100.00
20696;BME280;10507;52.754;13.040;2023-03-03T08:34:52;101816.91;;;1.09;100.00
20696;BME280;10507;52.754;13.040;2023-03-03T08:37:20;101817.75;;;1.05;100.00
20696;BME280;10507;52.754;13.040;2023-03-03T08:39:48;101793.22;;;1.06;100.00
20696;BME280;10507;52.754;13.040;2023-03-03T08:42:16;101858.25;;;1.24;100.00
20696;BME280;10507;52.754;13.040;2023-03-03T08:44:44;101802.94;;;1.18;100.00
20696;BME280;10507;52.754;13.040;2023-03-03T08:47:14;101859.19;;;1.34;100.00
20696;BME280;10507;52.754;13.040;2023-03-03T08:49:42;101803.88;;;1.21;100.00
20696;BME280;10507;52.754;13.040;2023-03-03T08:52:10;101812.63;;;1.25;100.00
20696;BME280;10507;52.754;13.040;2023-03-03T08:54:38;101855.72;;;1.41;100.00
20696;BME280;10507;52.754;13.040;2023-03-03T08:57:06;101824.97;;;1.34;100.00
20696;BME280;10507;52.754;13.040;2023-03-03T08:59:34;101783.69;;;1.25;100.00
20696;BME280;10507;52.754;13.040;2023-03-03T09:02:04;101829.34;;;1.29;100.00
20696;BME280;10507;52.754;13.040;2023-03-03T09:04:34;101789.81;;;1.21;100.00
20696;BME280;10507;52.754;13.040;2023-03-03T09:07:02;101826.72;;;1.29;100.00
20696;BME280;10507;52.754;13.040;2023-03-03T09:09:31;101850.44;;;1.38;100.00
20696;BME280;10507;52.754;13.040;2023-03-03T09:12:08;101776.75;;;1.30;100.00
20696;BME280;10507;52.754;13.040;2023-03-03T09:14:40;101801.34;;;1.40;100.00
20696;BME280;10507;52.754;13.040;2023-03-03T09:17:24;101787.25;;;1.32;100.00
20696;BME280;10507;52.754;13.040;2023-03-03T09:19:57;101741.63;;;1.30;100.00
20696;BME280;10507;52.754;13.040;2023-03-03T09:22:27;101809.25;;;1.41;100.00
20696;BME280;10507;52.754;13.040;2023-03-03T09:24:57;101764.41;;;1.24;100.00
20696;BME280;10507;52.754;13.040;2023-03-03T09:27:27;101778.47;;;1.30;100.00
20696;BME280;10507;52.754;13.040;2023-03-03T09:30:00;101800.41;;;1.29;100.00
20696;BME280;10507;52.754;13.040;2023-03-03T09:32:34;101845.22;;;1.44;100.00
20696;BME280;10507;52.754;13.040;2023-03-03T09:35:37;101794.31;;;1.37;100.00
20696;BME280;10507;52.754;13.040;2023-03-03T09:38:23;101808.41;;;1.44;100.00
20696;BME280;10507;52.754;13.040;2023-03-03T09:41:10;101789.13;;;1.54;100.00
20696;BME280;10507;52.754;13.040;2023-03-03T09:43:54;101805.88;;;1.65;100.00
20696;BME280;10507;52.754;13.040;2023-03-03T09:46:33;101843.69;;;1.83;100.00
20696;BME280;10507;52.754;13.040;2023-03-03T09:49:15;101772.59;;;1.81;100.00
20696;BME280;10507;52.754;13.040;2023-03-03T09:51:56;101783.16;;;1.84;100.00
20696;BME280;10507;52.754;13.040;2023-03-03T09:54:37;101790.16;;;1.78;100.00
20696;BME280;10507;52.754;13.040;2023-03-03T09:57:13;101726.03;;;1.66;100.00
20696;BME280;10507;52.754;13.040;2023-03-03T10:00:05;101802.44;;;1.83;100.00
20696;BME280;10507;52.754;13.040;2023-03-03T10:02:50;101737.47;;;1.75;100.00
20696;BME280;10507;52.754;13.040;2023-03-03T10:05:36;101719.91;;;1.66;100.00
20696;BME280;10507;52.754;13.040;2023-03-03T10:08:21;101829.66;;;1.85;100.00
20696;BME280;10507;52.754;13.040;2023-03-03T10:11:01;101810.41;;;1.94;100.00
20696;BME280;10507;52.754;13.040;2023-03-03T10:13:55;101786.69;;;1.94;100.00
20696;BME280;10507;52.754;13.040;2023-03-03T10:16:48;101806.03;;;1.96;100.00
20696;BME280;10507;52.754;13.040;2023-03-03T10:19:34;101816.63;;;2.12;100.00
20696;BME280;10507;52.754;13.040;2023-03-03T10:22:15;101774.47;;;2.10;100.00
20696;BME280;10507;52.754;13.040;2023-03-03T10:24:57;101724.44;;;2.08;100.00
20696;BME280;10507;52.754;13.040;2023-03-03T10:27:42;101756.06;;;2.13;100.00
20696;BME280;10507;52.754;13.040;2023-03-03T10:30:20;101691.03;;;2.11;100.00
20696;BME280;10507;52.754;13.040;2023-03-03T10:33:11;101776.25;;;2.19;100.00
20696;BME280;10507;52.754;13.040;2023-03-03T10:36:13;101669.09;;;1.98;100.00
20696;BME280;10507;52.754;13.040;2023-03-03T10:38:51;101713.84;;;1.99;100.00
20696;BME280;10507;52.754;13.040;2023-03-03T10:41:34;101688.38;;;1.97;100.00
20696;BME280;10507;52.754;13.040;2023-03-03T10:44:21;101763.94;;;2.13;100.00
20696;BME280;10507;52.754;13.040;2023-03-03T10:47:13;101753.41;;;2.15;100.00
20696;BME280;10507;52.754;13.040;2023-03-03T10:49:54;101697.19;;;2.17;100.00
20696;BME280;10507;52.754;13.040;2023-03-03T10:52:35;101758.69;;;2.25;100.00
20696;BME280;10507;52.754;13.040;2023-03-03T10:55:17;101798.28;;;2.42;100.00
20696;BME280;10507;52.754;13.040;2023-03-03T10:57:57;101768.38;;;2.46;100.00
20696;BME280;10507;52.754;13.040;2023-03-03T11:00:33;101735.00;;;2.45;100.00
20696;BME280;10507;52.754;13.040;2023-03-03T11:06:14;101823.81;;;2.77;100.00
20696;BME280;10507;52.754;13.040;2023-03-03T11:08:47;101749.97;;;2.79;100.00
20696;BME280;10507;52.754;13.040;2023-03-03T11:11:25;101717.44;;;2.84;100.00
20696;BME280;10507;52.754;13.040;2023-03-03T11:14:02;101642.75;;;2.61;100.00
20696;BME280;10507;52.754;13.040;2023-03-03T11:16:40;101680.53;;;2.63;100.00
20696;BME280;10507;52.754;13.040;2023-03-03T11:19:29;101761.38;;;2.84;100.00
20696;BME280;10507;52.754;13.040;2023-03-03T11:22:12;101723.56;;;2.80;100.00
20696;BME280;10507;52.754;13.040;2023-03-03T11:24:55;101690.19;;;2.76;100.00
20696;BME280;10507;52.754;13.040;2023-03-03T11:27:34;101736.78;;;2.89;100.00
20696;BME280;10507;52.754;13.040;2023-03-03T11:30:30;101668.22;;;2.74;100.00
20696;BME280;10507;52.754;13.040;2023-03-03T11:33:02;101698.97;;;2.86;100.00
20696;BME280;10507;52.754;13.040;2023-03-03T11:35:39;101697.22;;;2.88;100.00
20696;BME280;10507;52.754;13.040;2023-03-03T11:38:36;101717.44;;;2.97;100.00
20696;BME280;10507;52.754;13.040;2023-03-03T11:41:17;101733.22;;;3.17;100.00
20696;BME280;10507;52.754;13.040;2023-03-03T11:43:50;101678.66;;;3.20;100.00
20696;BME280;10507;52.754;13.040;2023-03-03T11:46:25;101612.75;;;3.08;100.00
20696;BME280;10507;52.754;13.040;2023-03-03T11:49:01;101568.78;;;3.02;100.00
20696;BME280;10507;52.754;13.040;2023-03-03T11:51:37;101625.94;;;3.08;100.00
20696;BME280;10507;52.754;13.040;2023-03-03T11:54:11;101552.13;;;2.92;100.00
20696;BME280;10507;52.754;13.040;2023-03-03T11:56:43;101652.34;;;3.02;100.00
20696;BME280;10507;52.754;13.040;2023-03-03T11:59:38;101651.47;;;3.03;100.00
20696;BME280;10507;52.754;13.040;2023-03-03T12:02:22;101674.28;;;3.13;100.00
20696;BME280;10507;52.754;13.040;2023-03-03T12:04:59;101705.06;;;3.20;100.00
20696;BME280;10507;52.754;13.040;2023-03-03T12:07:38;101712.94;;;3.36;100.00
20696;BME280;10507;52.754;13.040;2023-03-03T12:10:16;101618.00;;;3.19;100.00
20696;BME280;10507;52.754;13.040;2023-03-03T12:12:52;101613.56;;;3.22;100.00
20696;BME280;10507;52.754;13.040;2023-03-03T12:15:27;101647.88;;;3.22;100.00
20696;BME280;10507;52.754;13.040;2023-03-03T12:18:34;101698.00;;;3.35;100.00
20696;BME280;10507;52.754;13.040;2023-03-03T12:21:13;101700.56;;;3.51;100.00
20696;BME280;10507;52.754;13.040;2023-03-03T12:23:55;101650.41;;;3.48;100.00
20696;BME280;10507;52.754;13.040;2023-03-03T12:26:35;101567.75;;;3.39;100.00
20696;BME280;10507;52.754;13.040;2023-03-03T12:29:16;101611.69;;;3.47;100.00
20696;BME280;10507;52.754;13.040;2023-03-03T12:31:52;101574.75;;;3.46;100.00
20696;BME280;10507;52.754;13.040;2023-03-03T12:34:26;101651.22;;;3.63;100.00
20696;BME280;10507;52.754;13.040;2023-03-03T12:37:17;101565.88;;;3.56;100.00
20696;BME280;10507;52.754;13.040;2023-03-03T12:39:57;101569.34;;;3.66;100.00
20696;BME280;10507;52.754;13.040;2023-03-03T12:42:37;101538.56;;;3.63;100.00
20696;BME280;10507;52.754;13.040;2023-03-03T12:45:21;101476.22;;;3.44;100.00
20696;BME280;10507;52.754;13.040;2023-03-03T12:47:59;101538.63;;;3.51;100.00
20696;BME280;10507;52.754;13.040;2023-03-03T12:50:37;101586.91;;;3.71;100.00
20696;BME280;10507;52.754;13.040;2023-03-03T12:53:17;101540.25;;;3.73;100.00
20696;BME280;10507;52.754;13.040;2023-03-03T12:55:52;101590.28;;;3.92;100.00
20696;BME280;10507;52.754;13.040;2023-03-03T12:58:33;101572.56;;;4.05;100.00
20696;BME280;10507;52.754;13.040;2023-03-03T13:01:13;101520.56;;;4.10;100.00
20696;BME280;10507;52.754;13.040;2023-03-03T13:03:51;101502.97;;;4.06;99.71
20696;BME280;10507;52.754;13.040;2023-03-03T13:06:27;101502.16;;;4.02;100.00
20696;BME280;10507;52.754;13.040;2023-03-03T13:09:07;101567.16;;;4.19;100.00